Garden Spring, Nevada Weather observations

Data are for 10 minute period ending at time listed.
 Day   Time    Ave.   Ave.  Ave.  Vector   Max.   Stn.    Total    Solar   Ave.  
  of    of     Air    Rel.  Wind   Wind    Wind   Baro.  Precip.   Rad.    Soil  
Year   Day     Temp.  Hum.  Speed  Dir.    Gust   Pres.                    Temp. 
2015   (PST)    F      %     mph   deg.    mph     mb.     in.     W/m2     F    
--------------------------------------------------------------------------------- 
 184    2:00   77.2    43    4.3   266      6.2   852.6    0.00       0    88.6  
 184    3:00   76.1    45    4.3   256      6.0   852.6    0.00       0    87.8  
 184    4:00   76.0    43    3.9   275      5.9   852.6    0.00       0    86.9  
 184    5:00   75.3    42    4.2   294      6.4   852.5    0.00       0    86.2  
 184    6:00   74.5    45    3.7   267      5.4   852.8    0.00      10    85.4  
 184    7:00   77.5    42    2.8   288      5.4   853.3    0.00      99    85.2  
 184    8:00   83.3    32    1.5     3      3.7   853.5    0.00     207    85.2  
 184    9:00   88.4    26    2.5   140      8.2   853.6    0.00     532    85.2  
 184   10:00   90.2    25    5.2   153     10.7   853.5    0.00     716    85.4  
 184   11:00   92.0    23    6.5   137     14.4   853.4    0.00     835    86.5  
 184   12:00  999.0   999  999.0   999    999.0   999.0   999.00     999    999.0  
 184   13:00  999.0   999  999.0   999    999.0   999.0   999.00     999    999.0  
 184   14:00  999.0   999  999.0   999    999.0   999.0   999.00     999    999.0  
 184   15:00  999.0   999  999.0   999    999.0   999.0   999.00     999    999.0  
 184   16:00  999.0   999  999.0   999    999.0   999.0   999.00     999    999.0  
 184   17:00  999.0   999  999.0   999    999.0   999.0   999.00     999    999.0  
 184   18:00  999.0   999  999.0   999    999.0   999.0   999.00     999    999.0  
 184   19:00  999.0   999  999.0   999    999.0   999.0   999.00     999    999.0  
 184   20:00   89.8    20    2.8   273      8.0   850.3    0.00      82    91.5  
 184   21:00   83.7    24    3.7   282      7.5   850.6    0.00       1    90.5  
 184   22:00   81.3    24    3.7   267      6.0   851.0    0.00       0    89.7  
 184   23:00   81.4    25    3.0   286      6.3   851.1    0.00       0    89.1  
 185    0:00   80.9    27    2.3   192      6.5   851.2    0.00       0    88.2  
 185    1:00   81.2    30    2.5   249     10.3   851.2    0.00       0    87.5  

Return to Garden Spring, Nevada graphs page.


Western Regional Climate Center,wrcc@dri.edu